Time;durP1;ratioP1;P1;durP2;ratioP2;P2;SDS_P1;SDS_P2;PMS_P1;PMS_P2;Temp;Humidity;BMP_temperature;BMP_pressure;BME280_temperature;BME280_humidity;BME280_pressure;Samples;Min_cycle;Max_cycle;Signal;HPM_P1;HPM_P2
2023/03/07 00:00:13;;;;;;;52.47;23.50;;;;;;;;;;4840375;29;20976;-77
2023/03/07 00:02:39;;;;;;;44.47;18.52;;;;;;;;;;4842705;29;20676;-77
2023/03/07 00:05:06;;;;;;;39.08;17.80;;;;;;;;;;4841047;29;20177;-77
2023/03/07 00:07:32;;;;;;;35.13;15.52;;;;;;;;;;4824146;29;21602;-77
2023/03/07 00:09:59;;;;;;;23.60;11.90;;;;;;;;;;4836397;29;20077;-78
2023/03/07 00:12:25;;;;;;;44.55;19.30;;;;;;;;;;4849161;29;20097;-77
2023/03/07 00:14:51;;;;;;;36.63;16.48;;;;;;;;;;4852871;29;20067;-77
2023/03/07 00:17:17;;;;;;;38.33;15.27;;;;;;;;;;4835238;29;20180;-77
2023/03/07 00:19:43;;;;;;;36.40;16.73;;;;;;;;;;4827342;29;20053;-78
2023/03/07 00:22:10;;;;;;;42.25;17.98;;;;;;;;;;4829498;29;20080;-78
2023/03/07 00:24:36;;;;;;;33.38;16.17;;;;;;;;;;4839098;29;21720;-77
2023/03/07 00:27:02;;;;;;;33.38;14.15;;;;;;;;;;4839779;29;20580;-77
2023/03/07 00:29:28;;;;;;;32.35;15.35;;;;;;;;;;4845889;29;20041;-78
2023/03/07 00:31:54;;;;;;;32.88;13.43;;;;;;;;;;4841610;29;20092;-78
2023/03/07 00:34:21;;;;;;;28.15;13.98;;;;;;;;;;4839660;29;20048;-77
2023/03/07 00:36:47;;;;;;;26.27;12.52;;;;;;;;;;4830049;29;20052;-77
2023/03/07 00:39:13;;;;;;;18.35;7.53;;;;;;;;;;4837994;29;20160;-77
2023/03/07 00:41:39;;;;;;;18.33;7.45;;;;;;;;;;4839187;29;20056;-77
2023/03/07 00:44:06;;;;;;;26.13;10.60;;;;;;;;;;4824413;29;20625;-77
2023/03/07 00:46:32;;;;;;;25.88;12.50;;;;;;;;;;4839220;29;20081;-77
2023/03/07 00:48:58;;;;;;;35.50;14.13;;;;;;;;;;4836285;29;20049;-77
2023/03/07 00:51:24;;;;;;;36.45;14.45;;;;;;;;;;4840510;29;20045;-77
2023/03/07 00:53:51;;;;;;;35.28;15.07;;;;;;;;;;4853528;29;20060;-77
2023/03/07 00:56:18;;;;;;;31.50;13.43;;;;;;;;;;4834942;29;20084;-76
2023/03/07 00:58:45;;;;;;;23.15;10.40;;;;;;;;;;4837341;29;20405;-77
2023/03/07 01:01:12;;;;;;;28.75;12.55;;;;;;;;;;4835801;29;20049;-77
2023/03/07 01:03:38;;;;;;;32.83;12.32;;;;;;;;;;4827279;29;20095;-76
2023/03/07 01:06:05;;;;;;;24.80;10.02;;;;;;;;;;4836593;29;20049;-77
2023/03/07 01:08:32;;;;;;;20.05;8.73;;;;;;;;;;4824987;29;20042;-77
2023/03/07 01:11:01;;;;;;;21.98;8.93;;;;;;;;;;4841402;29;20053;-76
2023/03/07 01:13:28;;;;;;;21.88;8.15;;;;;;;;;;4823550;29;20041;-76
2023/03/07 01:15:55;;;;;;;24.55;8.13;;;;;;;;;;4831292;29;20504;-76
2023/03/07 01:18:21;;;;;;;19.42;8.02;;;;;;;;;;4823936;29;20057;-76
2023/03/07 01:20:47;;;;;;;23.70;7.35;;;;;;;;;;4812005;29;20072;-76
2023/03/07 01:23:13;;;;;;;21.15;5.53;;;;;;;;;;4827769;29;20046;-76
2023/03/07 01:25:42;;;;;;;21.05;5.53;;;;;;;;;;4841481;29;20140;-75
2023/03/07 01:28:13;;;;;;;17.13;5.10;;;;;;;;;;4837596;29;21223;-76
2023/03/07 01:30:39;;;;;;;16.80;4.70;;;;;;;;;;4836427;29;20049;-75
2023/03/07 01:33:05;;;;;;;13.30;3.10;;;;;;;;;;4836478;29;20045;-76
2023/03/07 01:35:36;;;;;;;16.98;2.38;;;;;;;;;;4835508;29;20041;-76
2023/03/07 01:38:02;;;;;;;9.75;1.65;;;;;;;;;;4835513;29;20058;-76
2023/03/07 01:40:28;;;;;;;6.75;1.70;;;;;;;;;;4834587;29;20253;-76
2023/03/07 01:42:54;;;;;;;18.52;2.20;;;;;;;;;;4836916;29;20049;-76
2023/03/07 01:45:33;;;;;;;18.15;2.05;;;;;;;;;;4833134;29;20041;-76
2023/03/07 01:47:59;;;;;;;19.65;2.40;;;;;;;;;;4827743;29;20045;-76
2023/03/07 01:50:26;;;;;;;25.10;2.60;;;;;;;;;;4837129;29;20053;-76
2023/03/07 01:52:59;;;;;;;14.00;1.75;;;;;;;;;;4834861;29;20040;-75
2023/03/07 01:55:27;;;;;;;16.27;1.90;;;;;;;;;;4838922;29;20093;-76
2023/03/07 01:57:54;;;;;;;14.43;2.40;;;;;;;;;;4845791;29;20071;-75
2023/03/07 02:00:30;;;;;;;19.17;2.53;;;;;;;;;;4847092;29;20053;-76
2023/03/07 02:03:05;;;;;;;19.02;2.00;;;;;;;;;;4845288;29;20049;-76
2023/03/07 02:05:37;;;;;;;16.02;2.17;;;;;;;;;;4826198;29;21106;-76
2023/03/07 02:08:03;;;;;;;29.13;2.42;;;;;;;;;;4836887;29;20084;-76
2023/03/07 02:10:31;;;;;;;18.63;1.52;;;;;;;;;;4819557;29;20041;-77
2023/03/07 02:12:57;;;;;;;12.57;2.30;;;;;;;;;;4837546;29;20056;-77
2023/03/07 02:15:23;;;;;;;15.30;1.33;;;;;;;;;;4837334;29;20045;-76
2023/03/07 02:17:49;;;;;;;14.75;1.85;;;;;;;;;;4836449;29;21558;-77
2023/03/07 02:20:27;;;;;;;11.05;2.05;;;;;;;;;;4825023;29;20435;-76
2023/03/07 02:22:54;;;;;;;15.20;1.85;;;;;;;;;;4841205;29;20056;-76
2023/03/07 02:25:39;;;;;;;13.20;1.60;;;;;;;;;;4838467;29;20187;-76
2023/03/07 02:28:06;;;;;;;13.05;2.03;;;;;;;;;;4839675;29;20052;-76
2023/03/07 02:30:32;;;;;;;14.80;1.83;;;;;;;;;;4856279;29;20053;-76
2023/03/07 02:32:58;;;;;;;15.52;2.60;;;;;;;;;;4844719;29;20149;-76
2023/03/07 02:35:25;;;;;;;11.13;1.33;;;;;;;;;;4843569;29;20149;-76
2023/03/07 02:38:02;;;;;;;7.68;1.10;;;;;;;;;;4829251;29;20869;-76
2023/03/07 02:40:29;;;;;;;9.57;1.02;;;;;;;;;;4843698;29;20165;-76
2023/03/07 02:42:56;;;;;;;12.23;1.80;;;;;;;;;;4828761;29;20049;-76
2023/03/07 02:45:22;;;;;;;9.63;1.20;;;;;;;;;;4849763;29;20068;-76
2023/03/07 02:47:48;;;;;;;15.30;1.98;;;;;;;;;;4844979;29;20049;-76
2023/03/07 02:50:15;;;;;;;10.30;1.40;;;;;;;;;;4843793;29;20069;-76
2023/03/07 02:52:41;;;;;;;4.15;1.25;;;;;;;;;;4843886;29;20082;-76
2023/03/07 02:55:08;;;;;;;8.93;1.13;;;;;;;;;;4818702;29;20057;-76
2023/03/07 02:57:34;;;;;;;10.77;1.38;;;;;;;;;;4838769;29;20060;-76
2023/03/07 03:00:01;;;;;;;4.07;1.35;;;;;;;;;;4835862;29;20060;-77
2023/03/07 03:02:27;;;;;;;7.75;1.58;;;;;;;;;;4826114;29;20478;-76
2023/03/07 03:04:53;;;;;;;5.85;1.00;;;;;;;;;;4844361;29;20072;-76
2023/03/07 03:07:19;;;;;;;9.48;1.45;;;;;;;;;;4845270;29;20055;-76
2023/03/07 03:09:45;;;;;;;8.77;1.98;;;;;;;;;;4825749;29;20082;-76
2023/03/07 03:12:11;;;;;;;11.35;1.48;;;;;;;;;;4829720;29;20165;-76
2023/03/07 03:14:37;;;;;;;6.20;1.45;;;;;;;;;;4843863;29;20141;-76
2023/03/07 03:17:03;;;;;;;13.70;1.60;;;;;;;;;;4829816;29;20132;-76
2023/03/07 03:19:29;;;;;;;15.57;1.83;;;;;;;;;;4847358;29;20056;-76
2023/03/07 03:21:57;;;;;;;5.03;0.88;;;;;;;;;;4828024;29;20053;-76
2023/03/07 03:24:23;;;;;;;15.88;3.08;;;;;;;;;;4842585;29;20107;-76
2023/03/07 03:26:49;;;;;;;5.03;1.20;;;;;;;;;;4841888;29;20053;-75
2023/03/07 03:29:15;;;;;;;10.48;1.88;;;;;;;;;;4837721;29;20052;-76
2023/03/07 03:31:41;;;;;;;10.15;1.63;;;;;;;;;;4839121;29;20056;-76
2023/03/07 03:34:08;;;;;;;8.70;0.90;;;;;;;;;;4841881;29;20059;-75
2023/03/07 03:36:34;;;;;;;13.15;1.60;;;;;;;;;;4844220;29;20161;-76
2023/03/07 03:39:00;;;;;;;11.90;1.48;;;;;;;;;;4825586;29;20052;-76
2023/03/07 03:41:26;;;;;;;16.67;3.00;;;;;;;;;;4842436;29;20053;-76
2023/03/07 03:43:53;;;;;;;17.02;2.05;;;;;;;;;;4846309;29;20045;-76
2023/03/07 03:46:19;;;;;;;11.90;1.40;;;;;;;;;;4849426;29;20056;-76
2023/03/07 03:48:52;;;;;;;15.88;1.25;;;;;;;;;;4850182;29;20151;-76
2023/03/07 03:51:18;;;;;;;13.77;2.03;;;;;;;;;;4840763;29;20414;-76
2023/03/07 03:53:45;;;;;;;7.55;1.25;;;;;;;;;;4839841;29;20650;-76
2023/03/07 03:56:15;;;;;;;12.05;1.60;;;;;;;;;;4819459;29;20067;-76
2023/03/07 03:58:41;;;;;;;9.00;1.10;;;;;;;;;;4834287;29;20053;-76
2023/03/07 04:01:09;;;;;;;8.52;1.23;;;;;;;;;;4836378;29;20056;-76
2023/03/07 04:03:36;;;;;;;9.77;1.60;;;;;;;;;;4837509;29;20048;-76
2023/03/07 04:06:07;;;;;;;11.02;1.25;;;;;;;;;;4836312;29;20057;-76
2023/03/07 04:08:33;;;;;;;9.02;1.00;;;;;;;;;;4834163;29;20047;-76
2023/03/07 04:10:59;;;;;;;9.77;2.03;;;;;;;;;;4834210;29;20442;-76
2023/03/07 04:13:26;;;;;;;9.63;1.35;;;;;;;;;;4834215;29;20145;-76
2023/03/07 04:15:53;;;;;;;10.02;1.25;;;;;;;;;;4833868;29;20092;-76
2023/03/07 04:18:19;;;;;;;10.80;1.50;;;;;;;;;;4817413;29;21192;-76
2023/03/07 04:20:47;;;;;;;9.15;1.65;;;;;;;;;;4822845;29;20091;-76
2023/03/07 04:23:13;;;;;;;10.02;1.27;;;;;;;;;;4823587;29;20044;-76
2023/03/07 04:25:39;;;;;;;11.98;2.05;;;;;;;;;;4837031;29;20186;-76
2023/03/07 04:28:05;;;;;;;8.55;1.38;;;;;;;;;;4824730;29;20223;-76
2023/03/07 04:30:31;;;;;;;13.25;1.17;;;;;;;;;;4835398;29;20040;-75
2023/03/07 04:32:57;;;;;;;5.63;0.82;;;;;;;;;;4832663;29;20048;-76
2023/03/07 04:35:23;;;;;;;13.88;1.25;;;;;;;;;;4808713;29;20052;-76
2023/03/07 04:37:49;;;;;;;9.25;1.25;;;;;;;;;;4833900;29;20097;-76
2023/03/07 04:40:15;;;;;;;7.30;1.67;;;;;;;;;;4834497;29;20048;-76
2023/03/07 04:42:41;;;;;;;10.45;2.65;;;;;;;;;;4849724;29;20049;-76
2023/03/07 04:45:08;;;;;;;8.43;1.63;;;;;;;;;;4839068;29;20088;-76
2023/03/07 04:47:34;;;;;;;11.68;1.70;;;;;;;;;;4838400;29;20136;-76
2023/03/07 04:50:00;;;;;;;9.95;1.67;;;;;;;;;;4838452;29;20403;-76
2023/03/07 04:52:26;;;;;;;13.23;1.80;;;;;;;;;;4839270;29;20304;-76
2023/03/07 04:54:52;;;;;;;10.35;1.42;;;;;;;;;;4837459;29;20101;-76
2023/03/07 04:57:18;;;;;;;10.32;1.60;;;;;;;;;;4827834;29;20709;-76
2023/03/07 04:59:44;;;;;;;12.13;2.15;;;;;;;;;;4830919;29;20144;-76
2023/03/07 05:02:12;;;;;;;9.57;1.65;;;;;;;;;;4819140;29;20072;-76
2023/03/07 05:04:38;;;;;;;10.18;1.60;;;;;;;;;;4836581;29;20072;-76
2023/03/07 05:07:04;;;;;;;12.93;1.73;;;;;;;;;;4834976;29;20086;-76
2023/03/07 05:09:31;;;;;;;12.63;2.15;;;;;;;;;;4820034;29;20053;-76
2023/03/07 05:11:57;;;;;;;10.40;1.45;;;;;;;;;;4823323;29;20049;-76
2023/03/07 05:14:23;;;;;;;5.57;0.98;;;;;;;;;;4830966;29;20080;-76
2023/03/07 05:16:49;;;;;;;13.60;1.70;;;;;;;;;;4832453;29;20550;-76
2023/03/07 05:19:15;;;;;;;12.05;1.67;;;;;;;;;;4832117;29;20053;-75
2023/03/07 05:21:42;;;;;;;9.48;1.48;;;;;;;;;;4828708;29;20704;-75
2023/03/07 05:24:09;;;;;;;15.02;1.85;;;;;;;;;;4835585;29;20053;-75
2023/03/07 05:26:35;;;;;;;11.23;2.35;;;;;;;;;;4831363;29;20058;-74
2023/03/07 05:29:01;;;;;;;11.48;1.63;;;;;;;;;;4832678;29;20037;-75
2023/03/07 05:31:28;;;;;;;8.70;1.20;;;;;;;;;;4836523;29;20045;-75
2023/03/07 05:33:54;;;;;;;8.82;1.67;;;;;;;;;;4845358;29;20049;-74
2023/03/07 05:36:20;;;;;;;9.32;1.42;;;;;;;;;;4863034;29;21893;-75
2023/03/07 05:38:46;;;;;;;9.73;1.67;;;;;;;;;;4848786;29;20053;-74
2023/03/07 05:41:12;;;;;;;13.82;1.20;;;;;;;;;;4839442;29;20041;-74
2023/03/07 05:43:38;;;;;;;11.88;1.45;;;;;;;;;;4829840;29;20059;-75
2023/03/07 05:46:04;;;;;;;10.75;1.35;;;;;;;;;;4835035;29;21393;-75
2023/03/07 05:48:30;;;;;;;8.85;1.20;;;;;;;;;;4831598;29;20057;-74
2023/03/07 05:51:02;;;;;;;5.22;1.30;;;;;;;;;;4838316;29;20477;-75
2023/03/07 05:53:28;;;;;;;4.65;0.90;;;;;;;;;;4823355;29;20045;-75
2023/03/07 05:55:54;;;;;;;11.23;1.58;;;;;;;;;;4834923;29;20064;-76
2023/03/07 05:58:20;;;;;;;7.78;1.23;;;;;;;;;;4836418;29;20701;-75
2023/03/07 06:00:46;;;;;;;7.95;1.02;;;;;;;;;;4835437;29;20053;-75
2023/03/07 06:03:12;;;;;;;8.32;0.90;;;;;;;;;;4836668;29;20526;-75
2023/03/07 06:05:38;;;;;;;7.85;0.90;;;;;;;;;;4846425;29;20562;-75
2023/03/07 06:08:05;;;;;;;2.40;0.70;;;;;;;;;;4846864;29;20149;-75
2023/03/07 06:10:32;;;;;;;1.05;0.50;;;;;;;;;;4842179;29;20047;-75
2023/03/07 06:12:59;;;;;;;1.92;0.88;;;;;;;;;;4835773;29;20421;-75
2023/03/07 06:15:25;;;;;;;5.53;0.77;;;;;;;;;;4845293;29;20109;-75
2023/03/07 06:17:54;;;;;;;1.92;0.98;;;;;;;;;;4840041;29;20053;-75
2023/03/07 06:20:20;;;;;;;7.68;0.93;;;;;;;;;;4841441;29;20053;-75
2023/03/07 06:22:46;;;;;;;4.55;0.50;;;;;;;;;;4837587;29;20079;-75
2023/03/07 06:25:14;;;;;;;6.22;0.90;;;;;;;;;;4841984;29;20049;-75
2023/03/07 06:27:40;;;;;;;4.13;1.00;;;;;;;;;;4839798;29;20057;-75
2023/03/07 06:30:08;;;;;;;7.10;1.02;;;;;;;;;;4838039;29;20041;-75
2023/03/07 06:32:34;;;;;;;5.03;0.98;;;;;;;;;;4825987;29;20050;-75
2023/03/07 06:35:00;;;;;;;9.43;1.15;;;;;;;;;;4822047;29;20165;-75
2023/03/07 06:37:26;;;;;;;7.25;1.02;;;;;;;;;;4846374;29;20050;-80
2023/03/07 06:39:55;;;;;;;8.30;1.10;;;;;;;;;;4842681;29;20475;-80
2023/03/07 06:42:21;;;;;;;6.60;1.10;;;;;;;;;;4846953;29;20709;-80
2023/03/07 06:44:47;;;;;;;11.75;1.30;;;;;;;;;;4837039;29;20105;-80
2023/03/07 06:47:13;;;;;;;10.25;1.10;;;;;;;;;;4832613;29;20060;-80
2023/03/07 06:49:39;;;;;;;7.97;2.00;;;;;;;;;;4826084;29;20045;-80
2023/03/07 06:52:05;;;;;;;7.55;1.02;;;;;;;;;;4846555;29;20542;-80
2023/03/07 06:54:32;;;;;;;7.97;1.65;;;;;;;;;;4844428;29;20052;-80
2023/03/07 06:56:58;;;;;;;10.15;1.55;;;;;;;;;;4830850;29;20057;-79
2023/03/07 06:59:24;;;;;;;5.40;1.15;;;;;;;;;;4853637;29;20096;-80
2023/03/07 07:01:50;;;;;;;14.02;1.90;;;;;;;;;;4859585;29;20088;-80
2023/03/07 07:04:16;;;;;;;9.63;1.40;;;;;;;;;;4843321;29;20041;-80
2023/03/07 07:06:42;;;;;;;8.85;1.35;;;;;;;;;;4844258;29;20197;-80
2023/03/07 07:09:11;;;;;;;11.40;1.35;;;;;;;;;;4852620;29;21418;-80
2023/03/07 07:11:37;;;;;;;9.13;1.60;;;;;;;;;;4853670;29;20497;-80
2023/03/07 07:14:03;;;;;;;7.40;1.45;;;;;;;;;;4834443;29;20041;-80
2023/03/07 07:16:32;;;;;;;12.45;1.70;;;;;;;;;;4826034;29;20131;-80
2023/03/07 07:18:58;;;;;;;11.77;1.75;;;;;;;;;;4846206;29;20132;-80
2023/03/07 07:21:24;;;;;;;8.85;1.27;;;;;;;;;;4844071;29;20545;-81
2023/03/07 07:23:50;;;;;;;10.07;1.75;;;;;;;;;;4827644;29;20089;-80
2023/03/07 07:26:16;;;;;;;9.18;2.00;;;;;;;;;;4843336;29;20055;-79
2023/03/07 07:28:42;;;;;;;13.93;3.20;;;;;;;;;;4842104;29;20195;-79
2023/03/07 07:31:08;;;;;;;19.98;3.05;;;;;;;;;;4815281;29;20536;-79
2023/03/07 07:33:35;;;;;;;17.02;2.90;;;;;;;;;;4841685;29;21042;-80
2023/03/07 07:36:01;;;;;;;28.27;4.60;;;;;;;;;;4846972;29;20072;-80
2023/03/07 07:38:27;;;;;;;11.13;1.45;;;;;;;;;;4834162;29;20072;-79
2023/03/07 07:40:55;;;;;;;22.67;3.33;;;;;;;;;;4845635;29;20392;-79
2023/03/07 07:43:21;;;;;;;13.10;2.05;;;;;;;;;;4844914;29;20071;-80
2023/03/07 07:45:47;;;;;;;12.98;1.85;;;;;;;;;;4834931;29;20064;-79
2023/03/07 07:48:13;;;;;;;17.20;2.03;;;;;;;;;;4832573;29;20152;-80
2023/03/07 07:50:39;;;;;;;19.77;2.85;;;;;;;;;;4831297;29;20184;-79
2023/03/07 07:53:05;;;;;;;15.00;2.00;;;;;;;;;;4834916;29;20049;-80
2023/03/07 07:55:31;;;;;;;19.15;1.90;;;;;;;;;;4834137;29;20049;-80
2023/03/07 07:57:57;;;;;;;8.73;2.17;;;;;;;;;;4837265;29;20105;-80
2023/03/07 08:00:23;;;;;;;14.40;2.42;;;;;;;;;;4836913;29;20572;-80
2023/03/07 08:02:50;;;;;;;11.00;2.10;;;;;;;;;;4835570;29;20058;-73
2023/03/07 08:05:17;;;;;;;22.15;2.25;;;;;;;;;;4845257;29;20041;-72
2023/03/07 08:07:43;;;;;;;18.20;1.75;;;;;;;;;;4843374;29;20956;-73
2023/03/07 08:10:12;;;;;;;8.35;1.55;;;;;;;;;;4843374;29;20132;-73
2023/03/07 08:12:38;;;;;;;15.25;1.88;;;;;;;;;;4834470;29;20132;-73
2023/03/07 08:15:04;;;;;;;13.35;1.88;;;;;;;;;;4844302;29;20052;-73
2023/03/07 08:17:30;;;;;;;9.73;1.70;;;;;;;;;;4842254;29;20049;-73
2023/03/07 08:20:00;;;;;;;8.68;1.27;;;;;;;;;;4841735;29;20052;-73
2023/03/07 08:22:26;;;;;;;11.70;1.45;;;;;;;;;;4830667;29;20045;-73
2023/03/07 08:24:52;;;;;;;11.05;1.33;;;;;;;;;;4842925;29;20045;-73
2023/03/07 08:27:19;;;;;;;14.85;1.60;;;;;;;;;;4832829;29;20581;-73
2023/03/07 08:29:48;;;;;;;7.07;1.33;;;;;;;;;;4842344;29;20748;-73
2023/03/07 08:32:16;;;;;;;10.68;1.35;;;;;;;;;;4842645;29;20049;-73
2023/03/07 08:34:42;;;;;;;7.97;1.52;;;;;;;;;;4831498;29;20103;-73
2023/03/07 08:37:09;;;;;;;7.68;1.50;;;;;;;;;;4843537;29;20056;-73
2023/03/07 08:39:35;;;;;;;9.43;1.40;;;;;;;;;;4841830;29;20096;-73
2023/03/07 08:42:01;;;;;;;10.88;1.52;;;;;;;;;;4841403;29;20202;-73
2023/03/07 08:44:27;;;;;;;4.97;1.00;;;;;;;;;;4851299;29;20072;-73
2023/03/07 08:46:53;;;;;;;11.95;1.90;;;;;;;;;;4841359;29;20061;-73
2023/03/07 08:49:20;;;;;;;9.68;1.52;;;;;;;;;;4851130;29;20093;-73
2023/03/07 08:51:49;;;;;;;12.88;1.70;;;;;;;;;;4845302;29;20053;-73
2023/03/07 08:54:15;;;;;;;11.02;1.52;;;;;;;;;;4834840;29;20116;-73
2023/03/07 08:56:41;;;;;;;11.40;1.50;;;;;;;;;;4841992;29;20573;-73
2023/03/07 08:59:08;;;;;;;9.60;1.35;;;;;;;;;;4846343;29;20136;-73
2023/03/07 09:01:34;;;;;;;12.18;1.42;;;;;;;;;;4845551;29;20439;-73
2023/03/07 09:04:00;;;;;;;13.73;1.42;;;;;;;;;;4847530;29;20040;-73
2023/03/07 09:06:26;;;;;;;15.07;2.00;;;;;;;;;;4832428;29;20414;-73
2023/03/07 09:08:53;;;;;;;10.00;1.70;;;;;;;;;;4848776;29;20128;-73
2023/03/07 09:11:20;;;;;;;9.88;1.40;;;;;;;;;;4846413;29;22076;-72
2023/03/07 09:13:46;;;;;;;9.48;1.75;;;;;;;;;;4847155;29;20045;-77
2023/03/07 09:16:13;;;;;;;13.18;1.40;;;;;;;;;;4846255;29;20049;-76
2023/03/07 09:18:39;;;;;;;13.43;1.67;;;;;;;;;;4834515;29;20045;-76
2023/03/07 09:21:06;;;;;;;9.25;2.22;;;;;;;;;;4849216;29;20090;-75
2023/03/07 09:23:32;;;;;;;9.23;2.03;;;;;;;;;;4832748;29;20114;-76
2023/03/07 09:25:59;;;;;;;10.32;1.92;;;;;;;;;;4847296;29;20123;-76
2023/03/07 09:28:25;;;;;;;14.02;1.73;;;;;;;;;;4846573;29;20487;-76
2023/03/07 09:30:51;;;;;;;11.57;1.50;;;;;;;;;;4855246;29;20045;-78
2023/03/07 09:33:17;;;;;;;6.20;1.63;;;;;;;;;;4848412;29;20485;-77
2023/03/07 09:35:43;;;;;;;8.65;1.40;;;;;;;;;;4850281;29;20042;-77
2023/03/07 09:38:09;;;;;;;7.50;1.17;;;;;;;;;;4818676;29;20038;-77
2023/03/07 09:40:37;;;;;;;9.02;1.38;;;;;;;;;;4845940;29;20038;-77
2023/03/07 09:43:19;;;;;;;6.53;1.58;;;;;;;;;;4848096;29;20150;-77
2023/03/07 09:45:59;;;;;;;9.95;1.38;;;;;;;;;;4844300;29;20041;-77
2023/03/07 09:48:44;;;;;;;6.90;1.55;;;;;;;;;;4848735;29;20041;-80
2023/03/07 09:51:29;;;;;;;5.57;1.17;;;;;;;;;;4831920;29;20059;-78
2023/03/07 09:54:14;;;;;;;14.38;2.85;;;;;;;;;;4846299;29;20049;-79
2023/03/07 09:56:45;;;;;;;6.72;1.08;;;;;;;;;;4860684;29;20069;-79
2023/03/07 09:59:14;;;;;;;10.02;1.67;;;;;;;;;;4850393;29;20513;-78
2023/03/07 10:01:41;;;;;;;13.43;1.60;;;;;;;;;;4856977;29;20184;-78
2023/03/07 10:04:14;;;;;;;12.05;1.58;;;;;;;;;;4849851;29;20045;-78
2023/03/07 10:06:41;;;;;;;16.02;1.10;;;;;;;;;;4848905;29;20159;-80
2023/03/07 10:09:12;;;;;;;9.30;1.10;;;;;;;;;;4849293;29;20125;-81
2023/03/07 10:11:38;;;;;;;7.40;1.13;;;;;;;;;;4851319;29;21183;-81
2023/03/07 10:14:10;;;;;;;5.47;1.20;;;;;;;;;;4852136;29;20446;-79
2023/03/07 10:16:49;;;;;;;8.35;1.30;;;;;;;;;;4851808;29;20048;-81
2023/03/07 10:19:15;;;;;;;9.18;0.85;;;;;;;;;;4860021;29;20048;-80
2023/03/07 10:22:02;;;;;;;9.60;1.08;;;;;;;;;;4861008;29;20059;-80
2023/03/07 10:24:28;;;;;;;5.65;1.77;;;;;;;;;;4842387;29;20575;-80
2023/03/07 10:26:59;;;;;;;5.13;1.20;;;;;;;;;;4840003;29;20056;-81
2023/03/07 10:29:28;;;;;;;8.68;1.30;;;;;;;;;;4871722;29;20056;-80
2023/03/07 10:31:55;;;;;;;7.45;1.40;;;;;;;;;;4855823;29;20060;-80
2023/03/07 10:34:26;;;;;;;7.43;1.10;;;;;;;;;;4856360;29;20040;-80
2023/03/07 10:36:56;;;;;;;8.05;1.20;;;;;;;;;;4854627;29;20108;-79
2023/03/07 10:39:26;;;;;;;7.93;1.20;;;;;;;;;;4852864;29;20278;-78
2023/03/07 10:41:52;;;;;;;13.88;1.42;;;;;;;;;;4850574;29;20394;-79
2023/03/07 10:44:20;;;;;;;12.32;1.85;;;;;;;;;;4867625;29;20080;-79
2023/03/07 10:46:46;;;;;;;8.23;1.45;;;;;;;;;;4849107;29;20116;-79
2023/03/07 10:49:21;;;;;;;9.95;1.33;;;;;;;;;;4835740;29;20077;-79
2023/03/07 10:51:50;;;;;;;11.60;2.17;;;;;;;;;;4846388;29;20044;-80
2023/03/07 10:54:18;;;;;;;7.10;1.48;;;;;;;;;;4851328;29;20089;-79
2023/03/07 10:57:04;;;;;;;8.48;1.23;;;;;;;;;;4848683;29;20072;-80
2023/03/07 10:59:30;;;;;;;6.57;1.02;;;;;;;;;;4849960;29;20053;-79
2023/03/07 11:01:58;;;;;;;6.82;1.10;;;;;;;;;;4865208;29;20571;-79
2023/03/07 11:04:26;;;;;;;10.63;1.33;;;;;;;;;;4850037;29;20048;-79
2023/03/07 11:06:53;;;;;;;10.43;1.70;;;;;;;;;;4852090;29;20405;-79
2023/03/07 11:09:22;;;;;;;8.75;1.10;;;;;;;;;;4869113;29;20104;-79
2023/03/07 11:11:56;;;;;;;5.35;0.90;;;;;;;;;;4849425;29;20498;-79
2023/03/07 11:14:23;;;;;;;6.82;1.08;;;;;;;;;;4850949;29;20068;-79
2023/03/07 11:16:58;;;;;;;9.10;1.40;;;;;;;;;;4866164;29;20076;-80
2023/03/07 11:19:24;;;;;;;8.35;1.45;;;;;;;;;;4850546;29;20059;-80
2023/03/07 11:21:53;;;;;;;3.15;0.88;;;;;;;;;;4841397;29;20057;-79
2023/03/07 11:24:23;;;;;;;6.10;1.30;;;;;;;;;;4849734;29;20060;-80
2023/03/07 11:26:53;;;;;;;7.70;1.25;;;;;;;;;;4848686;29;20120;-80
2023/03/07 11:29:19;;;;;;;2.78;0.80;;;;;;;;;;4848234;29;20075;-80
2023/03/07 11:31:54;;;;;;;8.07;1.20;;;;;;;;;;4849133;29;20738;-80
2023/03/07 11:34:24;;;;;;;10.13;1.45;;;;;;;;;;4851534;29;20053;-80
2023/03/07 11:36:56;;;;;;;8.02;1.58;;;;;;;;;;4851542;29;20497;-80
2023/03/07 11:39:25;;;;;;;7.53;0.98;;;;;;;;;;4849899;29;20053;-80
2023/03/07 11:42:02;;;;;;;5.53;1.38;;;;;;;;;;4848010;29;20263;-80
2023/03/07 11:44:47;;;;;;;6.97;1.30;;;;;;;;;;4846569;29;20052;-80
2023/03/07 11:47:33;;;;;;;5.20;1.25;;;;;;;;;;4847766;29;21109;-79
2023/03/07 11:50:08;;;;;;;3.08;0.77;;;;;;;;;;4842857;29;20099;-80
2023/03/07 11:52:46;;;;;;;2.78;0.85;;;;;;;;;;4849475;29;20645;-79
2023/03/07 11:55:30;;;;;;;5.22;1.13;;;;;;;;;;4852027;29;21628;-79
2023/03/07 11:57:57;;;;;;;;;;;;;;;;;;4867810;29;20049;-80
2023/03/07 12:00:42;;;;;;;7.28;1.20;;;;;;;;;;4861902;29;19933;-80
2023/03/07 12:03:26;;;;;;;6.30;1.20;;;;;;;;;;4865352;29;20096;-79
2023/03/07 12:05:57;;;;;;;3.60;0.90;;;;;;;;;;4843916;29;20044;-78
2023/03/07 12:08:25;;;;;;;3.10;0.90;;;;;;;;;;4866252;29;20738;-80
2023/03/07 12:11:10;;;;;;;4.35;1.10;;;;;;;;;;4851355;29;20484;-80
2023/03/07 12:13:55;;;;;;;7.70;1.20;;;;;;;;;;4856508;29;20540;-80
2023/03/07 12:16:36;;;;;;;6.13;0.90;;;;;;;;;;4836012;29;20052;-81
2023/03/07 12:19:14;;;;;;;7.32;1.50;;;;;;;;;;4833642;29;20175;-80
2023/03/07 12:21:58;;;;;;;5.03;0.90;;;;;;;;;;4843907;29;20044;-80
2023/03/07 12:24:27;;;;;;;4.72;1.25;;;;;;;;;;4845979;29;20085;-80
2023/03/07 12:27:00;;;;;;;7.60;1.20;;;;;;;;;;4848077;29;20055;-81
2023/03/07 12:29:34;;;;;;;5.57;1.00;;;;;;;;;;4848202;29;20056;-81
2023/03/07 12:32:04;;;;;;;4.93;1.00;;;;;;;;;;4851888;29;20088;-80
2023/03/07 12:34:39;;;;;;;5.57;1.00;;;;;;;;;;4846634;29;20072;-80
2023/03/07 12:37:44;;;;;;;6.55;1.30;;;;;;;;;;4863197;29;20045;-80
2023/03/07 12:40:19;;;;;;;2.83;0.80;;;;;;;;;;4773292;29;20062;-80
2023/03/07 12:42:48;;;;;;;6.15;1.23;;;;;;;;;;4773088;29;21365;-80
2023/03/07 12:45:26;;;;;;;6.07;1.20;;;;;;;;;;4816307;29;20151;-80
2023/03/07 12:47:59;;;;;;;8.32;0.90;;;;;;;;;;4847751;29;20674;-80
2023/03/07 12:50:38;;;;;;;8.52;1.77;;;;;;;;;;4834484;29;20578;-81
2023/03/07 12:53:23;;;;;;;8.25;1.77;;;;;;;;;;4847620;29;20127;-81
2023/03/07 12:55:51;;;;;;;6.70;1.27;;;;;;;;;;4852699;29;20065;-80
2023/03/07 12:58:29;;;;;;;6.47;1.30;;;;;;;;;;4845303;29;20056;-81
2023/03/07 13:01:00;;;;;;;4.82;1.35;;;;;;;;;;4851670;29;20047;-80
2023/03/07 13:03:29;;;;;;;5.13;1.00;;;;;;;;;;4849652;29;20626;-80
2023/03/07 13:05:56;;;;;;;5.40;1.23;;;;;;;;;;4853830;29;20112;-80
2023/03/07 13:08:23;;;;;;;6.40;0.95;;;;;;;;;;4854285;29;20056;-80
2023/03/07 13:10:49;;;;;;;5.60;1.40;;;;;;;;;;4849030;29;20041;-80
2023/03/07 13:13:34;;;;;;;3.95;1.15;;;;;;;;;;4844601;29;20104;-80
2023/03/07 13:16:02;;;;;;;7.75;0.98;;;;;;;;;;4846328;29;20584;-81
2023/03/07 13:18:30;;;;;;;5.15;0.80;;;;;;;;;;4848521;29;20068;-80
2023/03/07 13:21:08;;;;;;;5.15;1.08;;;;;;;;;;4863878;29;20037;-80
2023/03/07 13:23:34;;;;;;;5.75;0.80;;;;;;;;;;4846485;29;20540;-79
2023/03/07 13:26:02;;;;;;;6.07;0.80;;;;;;;;;;4845808;29;21952;-79
2023/03/07 13:28:33;;;;;;;8.65;1.08;;;;;;;;;;4844986;29;20045;-80
2023/03/07 13:31:17;;;;;;;7.13;0.77;;;;;;;;;;4848539;29;20037;-78
2023/03/07 13:33:44;;;;;;;10.73;1.10;;;;;;;;;;4860735;29;20072;-78
2023/03/07 13:36:29;;;;;;;4.20;1.00;;;;;;;;;;4850088;29;20164;-78
2023/03/07 13:38:55;;;;;;;5.78;1.30;;;;;;;;;;4846813;29;20059;-77
2023/03/07 13:41:40;;;;;;;6.53;1.15;;;;;;;;;;4850158;29;20453;-78
2023/03/07 13:44:24;;;;;;;6.72;0.82;;;;;;;;;;4853243;29;20100;-78
2023/03/07 13:46:53;;;;;;;11.20;1.85;;;;;;;;;;4850908;29;20409;-78
2023/03/07 13:49:39;;;;;;;4.80;0.90;;;;;;;;;;4852035;29;20056;-78
2023/03/07 13:52:16;;;;;;;6.43;0.98;;;;;;;;;;4833532;29;20490;-78
2023/03/07 13:54:44;;;;;;;4.13;0.70;;;;;;;;;;4848833;29;20056;-78
2023/03/07 13:57:15;;;;;;;4.10;0.80;;;;;;;;;;4850045;29;20057;-78
2023/03/07 13:59:46;;;;;;;8.23;1.30;;;;;;;;;;4851736;29;20588;-78
2023/03/07 14:02:13;;;;;;;7.35;1.40;;;;;;;;;;4850009;29;20052;-78
2023/03/07 14:04:45;;;;;;;6.90;0.80;;;;;;;;;;4850700;29;20510;-78
2023/03/07 14:07:30;;;;;;;5.72;1.20;;;;;;;;;;4849835;29;20047;-78
2023/03/07 14:09:56;;;;;;;6.60;0.90;;;;;;;;;;4851537;29;20088;-78
2023/03/07 14:12:41;;;;;;;8.95;1.20;;;;;;;;;;4849301;29;20077;-78
2023/03/07 14:15:07;;;;;;;7.25;0.90;;;;;;;;;;4852676;29;20040;-78
2023/03/07 14:17:53;;;;;;;7.35;0.80;;;;;;;;;;4849568;29;20172;-78
2023/03/07 14:20:46;;;;;;;8.50;1.10;;;;;;;;;;4858337;29;20607;-78
2023/03/07 14:23:20;;;;;;;5.35;1.10;;;;;;;;;;4825092;29;20061;-78
2023/03/07 14:25:48;;;;;;;2.85;0.43;;;;;;;;;;4850113;29;20140;-79
2023/03/07 14:28:18;;;;;;;3.08;0.50;;;;;;;;;;4850644;29;20048;-78
2023/03/07 14:30:51;;;;;;;0.50;0.50;;;;;;;;;;4849684;29;20154;-78
2023/03/07 14:33:18;;;;;;;2.55;0.52;;;;;;;;;;4852680;29;20053;-78
2023/03/07 14:35:44;;;;;;;3.03;0.60;;;;;;;;;;4855697;29;20577;-78
2023/03/07 14:38:21;;;;;;;1.92;0.47;;;;;;;;;;4833828;29;20071;-79
2023/03/07 14:40:53;;;;;;;2.38;0.93;;;;;;;;;;4849839;29;20722;-78
2023/03/07 14:43:31;;;;;;;6.40;0.65;;;;;;;;;;4849287;29;20139;-77
2023/03/07 14:46:16;;;;;;;4.18;0.40;;;;;;;;;;4846970;29;20044;-78